Time;durP1;ratioP1;P1;durP2;ratioP2;P2;SDS_P1;SDS_P2;PMS_P1;PMS_P2;Temp;Humidity;BMP_temperature;BMP_pressure;BME280_temperature;BME280_humidity;BME280_pressure;Samples;Min_cycle;Max_cycle;Signal;HPM_P1;HPM_P2
2023/07/22 00:02:17;;;;;;;1.20;0.68;;;14.20;99.90;;;;;;5011207;28;20125;-70
2023/07/22 00:04:43;;;;;;;0.55;0.55;;;14.10;99.90;;;;;;5024595;28;20948;-70
2023/07/22 00:07:09;;;;;;;0.77;0.45;;;14.10;99.90;;;;;;5023341;28;20053;-70
2023/07/22 00:09:35;;;;;;;0.82;0.43;;;14.10;99.90;;;;;;5024121;28;20584;-70
2023/07/22 00:12:00;;;;;;;2.10;0.60;;;14.10;99.90;;;;;;5024268;28;20049;-71
2023/07/22 00:14:26;;;;;;;1.60;0.55;;;14.10;99.90;;;;;;5010341;28;20037;-70
2023/07/22 00:16:52;;;;;;;2.03;0.82;;;14.10;99.90;;;;;;5003316;28;20060;-70
2023/07/22 00:19:17;;;;;;;0.50;0.50;;;14.10;99.90;;;;;;5004168;28;20034;-71
2023/07/22 00:21:44;;;;;;;0.65;0.55;;;14.10;99.90;;;;;;4986878;28;20034;-69
2023/07/22 00:24:10;;;;;;;9.30;0.82;;;14.10;99.90;;;;;;5002223;28;20088;-70
2023/07/22 00:26:36;;;;;;;0.90;0.68;;;14.10;99.90;;;;;;5003100;28;20049;-69
2023/07/22 00:29:02;;;;;;;1.30;0.75;;;14.10;99.90;;;;;;5003728;28;20053;-70
2023/07/22 00:31:28;;;;;;;0.73;0.73;;;14.10;99.90;;;;;;5003462;28;20100;-69
2023/07/22 00:33:53;;;;;;;0.50;0.50;;;14.10;99.90;;;;;;5004489;28;20077;-69
2023/07/22 00:36:19;;;;;;;1.33;0.70;;;14.10;99.90;;;;;;5004144;28;20045;-70
2023/07/22 00:38:45;;;;;;;2.13;1.40;;;14.10;99.90;;;;;;5002075;28;20053;-69
2023/07/22 00:41:11;;;;;;;1.17;0.68;;;14.00;99.90;;;;;;5002437;28;20125;-70
2023/07/22 00:43:38;;;;;;;1.30;0.70;;;14.00;99.90;;;;;;5002699;28;20443;-70
2023/07/22 00:46:04;;;;;;;1.00;0.70;;;14.00;99.90;;;;;;5005584;28;20050;-70
2023/07/22 00:48:30;;;;;;;2.80;1.05;;;13.90;99.90;;;;;;5004252;28;20038;-72
2023/07/22 00:50:55;;;;;;;1.00;0.95;;;13.90;99.90;;;;;;5004146;28;20048;-69
2023/07/22 00:53:21;;;;;;;0.73;0.70;;;13.90;99.90;;;;;;5000437;28;20034;-72
2023/07/22 00:55:47;;;;;;;2.88;1.08;;;14.00;99.90;;;;;;5003434;28;20040;-70
2023/07/22 00:58:13;;;;;;;1.38;0.85;;;13.90;99.90;;;;;;5003954;28;20038;-70
2023/07/22 01:00:38;;;;;;;3.20;1.10;;;13.90;99.90;;;;;;5002528;28;20488;-70
2023/07/22 01:03:04;;;;;;;2.03;0.80;;;13.90;99.90;;;;;;5002729;28;20057;-70
2023/07/22 01:05:31;;;;;;;1.98;1.38;;;13.90;99.90;;;;;;5006868;28;20038;-71
2023/07/22 01:07:57;;;;;;;1.83;1.08;;;13.80;99.90;;;;;;5003393;28;20151;-69
2023/07/22 01:10:22;;;;;;;2.05;0.85;;;13.80;99.90;;;;;;5003327;28;20038;-70
2023/07/22 01:12:48;;;;;;;1.00;0.60;;;13.70;99.90;;;;;;5002406;28;20076;-70
2023/07/22 01:15:14;;;;;;;2.40;1.10;;;13.70;99.90;;;;;;5015125;28;20424;-70
2023/07/22 01:17:40;;;;;;;1.85;0.80;;;13.70;99.90;;;;;;5004252;28;20042;-70
2023/07/22 01:20:06;;;;;;;1.33;1.23;;;13.70;99.90;;;;;;5003028;28;20073;-70
2023/07/22 01:22:33;;;;;;;1.63;0.90;;;13.70;99.90;;;;;;5003542;28;20034;-70
2023/07/22 01:25:00;;;;;;;3.40;0.80;;;13.60;99.90;;;;;;5011009;28;20475;-70
2023/07/22 01:27:26;;;;;;;3.53;1.98;;;13.60;99.90;;;;;;5003426;28;20128;-70
2023/07/22 01:29:52;;;;;;;3.17;1.02;;;13.50;99.90;;;;;;5007403;28;20384;-70
2023/07/22 01:32:19;;;;;;;3.67;1.30;;;13.50;99.90;;;;;;5001442;28;20080;-69
2023/07/22 01:34:45;;;;;;;3.30;1.05;;;13.50;99.90;;;;;;4987157;28;20079;-69
2023/07/22 01:37:11;;;;;;;1.20;1.10;;;13.50;99.90;;;;;;5002804;28;20034;-70
2023/07/22 01:39:37;;;;;;;2.70;1.25;;;13.40;99.90;;;;;;5001386;28;20451;-69
2023/07/22 01:42:03;;;;;;;1.30;1.10;;;13.40;99.90;;;;;;5001043;28;20037;-69
2023/07/22 01:44:30;;;;;;;3.35;1.10;;;13.40;99.90;;;;;;5003650;28;20125;-69
2023/07/22 01:46:55;;;;;;;4.47;1.48;;;13.30;99.90;;;;;;5001948;28;20052;-70
2023/07/22 01:49:21;;;;;;;1.58;0.77;;;13.30;99.90;;;;;;5003795;28;20030;-70
2023/07/22 01:51:46;;;;;;;2.90;1.58;;;13.30;99.90;;;;;;5011961;28;20488;-69
2023/07/22 01:54:12;;;;;;;3.25;1.08;;;13.30;99.90;;;;;;4999670;28;20408;-69
2023/07/22 01:56:39;;;;;;;3.95;1.00;;;13.20;99.90;;;;;;5001095;28;20496;-69
2023/07/22 01:59:05;;;;;;;2.80;0.88;;;13.20;99.90;;;;;;5001315;28;20041;-70
2023/07/22 02:01:31;;;;;;;1.77;0.75;;;13.20;99.90;;;;;;5003986;28;20068;-70
2023/07/22 02:03:56;;;;;;;3.55;1.35;;;13.20;99.90;;;;;;5007340;28;20405;-69
2023/07/22 02:06:22;;;;;;;1.95;0.75;;;13.10;99.90;;;;;;5016812;28;20057;-70
2023/07/22 02:08:48;;;;;;;2.85;0.98;;;13.10;99.90;;;;;;5021488;28;20042;-69
2023/07/22 02:11:14;;;;;;;2.15;1.33;;;13.10;99.90;;;;;;5018632;28;20064;-70
2023/07/22 02:13:39;;;;;;;2.25;1.27;;;13.10;99.90;;;;;;5020970;28;20029;-70
2023/07/22 02:16:05;;;;;;;2.05;1.20;;;13.10;99.90;;;;;;5020468;28;20050;-70
2023/07/22 02:18:31;;;;;;;1.38;1.10;;;13.10;99.90;;;;;;5022523;28;20045;-70
2023/07/22 02:20:57;;;;;;;2.95;1.25;;;13.20;99.90;;;;;;5020035;28;20418;-70
2023/07/22 02:23:23;;;;;;;3.95;1.30;;;13.10;99.90;;;;;;5008095;28;20061;-70
2023/07/22 02:25:50;;;;;;;2.83;1.50;;;13.10;99.90;;;;;;5004656;28;20523;-69
2023/07/22 02:28:16;;;;;;;1.55;0.95;;;13.10;99.90;;;;;;5005978;28;20562;-69
2023/07/22 02:30:42;;;;;;;1.40;1.10;;;13.10;99.90;;;;;;5015895;28;20531;-70
2023/07/22 02:33:08;;;;;;;1.88;0.77;;;13.20;99.90;;;;;;5015939;28;20074;-70
2023/07/22 02:35:34;;;;;;;1.52;0.93;;;13.10;99.90;;;;;;5006862;28;20536;-70
2023/07/22 02:38:00;;;;;;;1.83;0.95;;;13.00;99.90;;;;;;5006026;28;20274;-72
2023/07/22 02:40:26;;;;;;;1.83;0.77;;;13.00;99.90;;;;;;5019218;28;20041;-70
2023/07/22 02:42:52;;;;;;;2.95;1.33;;;13.00;99.90;;;;;;5002345;28;20389;-70
2023/07/22 02:45:17;;;;;;;3.22;1.10;;;13.00;99.90;;;;;;4991864;28;20332;-70
2023/07/22 02:47:43;;;;;;;2.05;1.30;;;12.90;99.90;;;;;;5002495;28;20508;-70
2023/07/22 02:50:09;;;;;;;3.35;1.30;;;12.90;99.90;;;;;;5000474;28;20540;-70
2023/07/22 02:52:35;;;;;;;2.60;1.70;;;12.90;99.90;;;;;;5000312;28;20141;-70
2023/07/22 02:55:10;;;;;;;1.27;0.90;;;12.80;99.90;;;;;;5000738;28;20089;-70
2023/07/22 02:57:37;;;;;;;3.10;1.27;;;12.80;99.90;;;;;;5000639;28;20057;-69
2023/07/22 03:00:07;;;;;;;3.50;1.00;;;12.80;99.90;;;;;;5000535;28;20370;-70
2023/07/22 03:02:34;;;;;;;3.75;1.25;;;12.80;99.90;;;;;;5007684;28;20105;-69
2023/07/22 03:04:59;;;;;;;2.08;1.15;;;12.80;99.90;;;;;;5000159;28;20041;-72
2023/07/22 03:07:27;;;;;;;3.38;1.50;;;12.80;99.90;;;;;;5001167;28;20413;-70
2023/07/22 03:09:53;;;;;;;2.08;1.30;;;12.80;99.90;;;;;;5007007;28;20037;-70
2023/07/22 03:12:18;;;;;;;7.05;2.13;;;12.90;99.90;;;;;;5000142;28;20068;-70
2023/07/22 03:14:45;;;;;;;4.28;1.90;;;12.80;99.90;;;;;;5000932;28;20046;-69
2023/07/22 03:17:12;;;;;;;1.90;1.42;;;12.80;99.90;;;;;;5007007;28;20076;-69
2023/07/22 03:19:37;;;;;;;3.28;1.38;;;12.80;99.90;;;;;;5005704;28;20077;-70
2023/07/22 03:22:03;;;;;;;4.65;1.30;;;12.80;99.90;;;;;;5004062;28;20078;-70
2023/07/22 03:24:29;;;;;;;3.22;1.10;;;12.80;99.90;;;;;;5011247;28;20076;-70
2023/07/22 03:26:55;;;;;;;2.25;1.45;;;12.80;99.90;;;;;;5004429;28;20046;-70
2023/07/22 03:29:24;;;;;;;3.83;1.48;;;12.90;99.90;;;;;;5009586;28;20128;-70
2023/07/22 03:31:49;;;;;;;2.97;1.27;;;12.90;99.90;;;;;;5023877;28;21103;-70
2023/07/22 03:34:15;;;;;;;2.67;1.48;;;13.00;99.90;;;;;;5005061;28;20140;-70
2023/07/22 03:36:41;;;;;;;5.55;1.77;;;12.90;99.90;;;;;;4987761;28;20341;-69
2023/07/22 03:39:07;;;;;;;3.58;1.23;;;12.90;99.90;;;;;;5003020;28;20262;-70
2023/07/22 03:41:33;;;;;;;4.50;1.20;;;12.90;99.90;;;;;;5003771;28;20242;-69
2023/07/22 03:43:58;;;;;;;1.88;1.35;;;12.90;99.90;;;;;;5019246;28;20598;-70
2023/07/22 03:46:24;;;;;;;2.80;1.58;;;12.90;99.90;;;;;;5019040;28;20042;-70
2023/07/22 03:48:50;;;;;;;2.65;1.60;;;12.90;99.90;;;;;;5005355;28;20041;-70
2023/07/22 03:51:15;;;;;;;4.45;1.92;;;13.00;99.90;;;;;;5004526;28;20068;-70
2023/07/22 03:53:41;;;;;;;5.45;1.55;;;13.00;99.90;;;;;;5003957;28;20034;-70
2023/07/22 03:56:06;;;;;;;3.33;1.38;;;13.00;99.90;;;;;;5003079;28;20111;-70
2023/07/22 03:58:32;;;;;;;4.78;1.95;;;13.10;99.90;;;;;;5003680;28;20436;-70
2023/07/22 04:00:57;;;;;;;2.55;1.45;;;13.10;99.90;;;;;;5004353;28;20049;-69
2023/07/22 04:03:23;;;;;;;4.38;2.17;;;13.10;99.90;;;;;;5019223;28;20226;-69
2023/07/22 04:05:58;;;;;;;4.68;2.20;;;13.10;99.90;;;;;;5024502;28;20644;-69
2023/07/22 04:08:24;;;;;;;5.30;2.40;;;13.10;99.90;;;;;;5023134;28;20218;-70
2023/07/22 04:10:56;;;;;;;4.18;2.15;;;13.20;99.90;;;;;;5024787;28;20142;-70
2023/07/22 04:13:24;;;;;;;6.80;2.08;;;13.20;99.90;;;;;;5006075;28;20046;-69
2023/07/22 04:15:50;;;;;;;4.82;2.00;;;13.20;99.90;;;;;;5023421;28;20120;-69
2023/07/22 04:18:17;;;;;;;5.80;1.92;;;13.20;99.90;;;;;;5022417;28;20240;-70
2023/07/22 04:20:43;;;;;;;4.68;2.53;;;13.30;99.90;;;;;;5023610;28;20488;-69
2023/07/22 04:23:09;;;;;;;7.38;2.92;;;13.20;99.90;;;;;;5021319;28;20065;-70
2023/07/22 04:25:45;;;;;;;6.20;2.35;;;13.30;99.90;;;;;;5024524;28;20199;-69
2023/07/22 04:28:11;;;;;;;5.57;2.95;;;13.30;99.90;;;;;;5018147;28;20229;-70
2023/07/22 04:30:37;;;;;;;6.78;3.08;;;13.40;99.90;;;;;;5011329;28;20443;-69
2023/07/22 04:33:05;;;;;;;6.57;2.70;;;13.40;99.90;;;;;;5002990;28;20033;-70
2023/07/22 04:35:35;;;;;;;7.50;3.08;;;13.40;99.90;;;;;;5004357;28;20042;-70
2023/07/22 04:38:01;;;;;;;9.02;3.28;;;13.50;99.90;;;;;;5001023;28;20042;-70
2023/07/22 04:40:26;;;;;;;7.00;3.28;;;13.50;99.90;;;;;;5003534;28;20096;-70
2023/07/22 04:42:52;;;;;;;10.32;4.18;;;13.50;99.90;;;;;;5003086;28;20038;-70
2023/07/22 04:45:18;;;;;;;6.60;3.83;;;13.60;99.90;;;;;;5003787;28;20137;-70
2023/07/22 04:47:46;;;;;;;6.07;3.20;;;13.60;99.90;;;;;;5004382;28;20546;-70
2023/07/22 04:50:13;;;;;;;8.73;2.88;;;13.60;99.90;;;;;;5002352;28;20085;-70
2023/07/22 04:52:40;;;;;;;6.18;3.63;;;13.70;99.90;;;;;;5010897;28;20951;-70
2023/07/22 04:55:09;;;;;;;7.32;3.80;;;13.70;99.90;;;;;;5008087;28;20042;-70
2023/07/22 04:57:44;;;;;;;15.50;3.63;;;13.70;99.90;;;;;;5006180;28;20041;-70
2023/07/22 05:00:14;;;;;;;8.55;2.97;;;13.80;99.90;;;;;;5002163;28;20038;-69
2023/07/22 05:02:40;;;;;;;6.40;2.83;;;13.80;99.90;;;;;;5004264;28;20087;-70
2023/07/22 05:05:07;;;;;;;5.30;3.05;;;13.80;99.90;;;;;;4985595;28;20441;-70
2023/07/22 05:07:32;;;;;;;9.43;4.43;;;13.80;99.90;;;;;;4984982;28;20046;-70
2023/07/22 05:09:58;;;;;;;6.90;2.60;;;13.80;99.90;;;;;;5002924;28;20103;-70
2023/07/22 05:12:24;;;;;;;7.40;3.58;;;13.90;99.90;;;;;;5006536;28;20053;-70
2023/07/22 05:14:49;;;;;;;6.03;2.63;;;13.90;99.90;;;;;;5021825;28;20037;-69
2023/07/22 05:17:15;;;;;;;7.78;3.67;;;13.90;99.90;;;;;;5020875;28;20037;-70
2023/07/22 05:19:41;;;;;;;6.38;3.42;;;13.90;99.90;;;;;;5023409;28;20047;-69
2023/07/22 05:22:07;;;;;;;11.93;4.30;;;13.90;99.90;;;;;;5018118;28;20415;-69
2023/07/22 05:24:33;;;;;;;8.32;2.92;;;14.00;99.90;;;;;;5008275;28;20095;-70
2023/07/22 05:26:58;;;;;;;7.85;4.25;;;14.00;99.90;;;;;;5023235;28;20038;-69
2023/07/22 05:29:24;;;;;;;9.50;3.53;;;14.00;99.90;;;;;;5017917;28;20377;-70
2023/07/22 05:31:50;;;;;;;6.07;3.25;;;14.10;99.90;;;;;;5004150;28;20472;-70
2023/07/22 05:34:16;;;;;;;8.15;3.50;;;14.10;99.90;;;;;;5002736;28;20045;-70
2023/07/22 05:36:41;;;;;;;8.63;3.35;;;14.10;99.90;;;;;;5002567;28;20049;-69
2023/07/22 05:39:07;;;;;;;7.63;3.50;;;14.10;99.90;;;;;;5001319;28;20627;-69
2023/07/22 05:41:33;;;;;;;8.30;3.90;;;14.20;99.90;;;;;;5001921;28;20056;-70
2023/07/22 05:43:59;;;;;;;5.95;3.30;;;14.20;99.90;;;;;;5001882;28;20092;-70
2023/07/22 05:46:25;;;;;;;11.27;3.50;;;14.20;99.90;;;;;;5004812;28;20041;-70
2023/07/22 05:48:50;;;;;;;7.47;3.72;;;14.30;99.90;;;;;;5003066;28;20141;-70
2023/07/22 05:51:17;;;;;;;7.50;2.80;;;14.30;99.90;;;;;;5001257;28;20100;-70
2023/07/22 05:53:43;;;;;;;5.53;3.72;;;14.40;99.90;;;;;;5006846;28;20587;-70
2023/07/22 05:56:08;;;;;;;8.10;3.60;;;14.40;99.90;;;;;;4985668;28;20037;-69
2023/07/22 05:58:34;;;;;;;5.47;2.60;;;14.40;99.90;;;;;;5006304;28;20081;-70
2023/07/22 06:01:00;;;;;;;6.68;3.42;;;14.50;99.90;;;;;;5010320;28;20110;-71
2023/07/22 06:03:26;;;;;;;10.32;3.63;;;14.50;99.90;;;;;;5002505;28;20096;-70
2023/07/22 06:05:51;;;;;;;9.40;4.70;;;14.50;99.90;;;;;;5001577;28;20052;-70
2023/07/22 06:08:17;;;;;;;10.02;4.05;;;14.60;99.90;;;;;;5000364;28;20042;-69
2023/07/22 06:10:43;;;;;;;9.88;4.78;;;14.70;99.90;;;;;;5018309;28;20550;-69
2023/07/22 06:13:08;;;;;;;9.65;4.93;;;14.70;99.90;;;;;;5022334;28;20042;-70
2023/07/22 06:15:34;;;;;;;8.40;3.80;;;14.70;99.90;;;;;;5016470;28;20087;-69
2023/07/22 06:18:00;;;;;;;11.10;4.05;;;14.70;99.90;;;;;;5003458;28;20042;-71
2023/07/22 06:20:27;;;;;;;11.38;4.15;;;14.80;99.90;;;;;;5008107;28;20041;-70
2023/07/22 06:22:52;;;;;;;9.02;4.65;;;14.80;99.90;;;;;;5001484;28;20100;-70
2023/07/22 06:25:18;;;;;;;14.50;4.97;;;14.80;99.90;;;;;;5000499;28;20042;-70
2023/07/22 06:27:44;;;;;;;9.63;4.30;;;14.90;99.90;;;;;;5005461;28;20048;-69
2023/07/22 06:30:10;;;;;;;13.35;5.80;;;14.90;99.90;;;;;;5012300;28;20183;-71
2023/07/22 06:32:37;;;;;;;12.68;5.38;;;14.90;99.90;;;;;;5015254;28;20530;-71
2023/07/22 06:35:03;;;;;;;12.00;4.55;;;14.90;99.90;;;;;;5000879;28;20488;-71
2023/07/22 06:37:29;;;;;;;10.80;5.03;;;15.00;99.90;;;;;;5001899;28;20046;-71
2023/07/22 06:39:55;;;;;;;12.10;4.95;;;15.00;99.90;;;;;;4995718;28;20492;-70
2023/07/22 06:42:20;;;;;;;9.35;4.35;;;15.00;99.90;;;;;;5017144;28;20124;-69
2023/07/22 06:44:46;;;;;;;10.93;4.82;;;15.00;99.90;;;;;;5016346;28;20452;-71
2023/07/22 06:47:12;;;;;;;10.73;4.40;;;15.10;99.90;;;;;;5002186;28;20042;-70
2023/07/22 06:49:37;;;;;;;12.40;5.05;;;15.20;99.90;;;;;;5003822;28;20045;-71
2023/07/22 06:52:04;;;;;;;20.90;5.50;;;15.20;99.90;;;;;;5023159;28;20156;-70
2023/07/22 06:54:29;;;;;;;12.88;5.00;;;15.20;99.90;;;;;;5011375;28;20469;-72
2023/07/22 06:56:55;;;;;;;15.85;5.57;;;15.20;99.90;;;;;;5011048;28;20136;-69
2023/07/22 06:59:20;;;;;;;10.52;5.20;;;15.30;99.90;;;;;;5001112;28;20232;-69
2023/07/22 07:01:46;;;;;;;10.45;5.45;;;15.30;99.90;;;;;;5007995;28;20124;-69
2023/07/22 07:04:12;;;;;;;11.75;5.43;;;15.40;99.90;;;;;;5005357;28;20045;-70
2023/07/22 07:06:38;;;;;;;12.02;5.20;;;15.40;99.90;;;;;;5016872;28;20294;-69
2023/07/22 07:09:05;;;;;;;10.25;5.78;;;15.50;99.90;;;;;;5006163;28;20128;-70
2023/07/22 07:11:31;;;;;;;9.38;4.60;;;15.50;99.90;;;;;;5004967;28;20041;-70
2023/07/22 07:13:57;;;;;;;12.77;4.82;;;15.60;99.90;;;;;;5006485;28;20046;-69
2023/07/22 07:16:28;;;;;;;9.60;3.90;;;15.60;99.90;;;;;;5018901;28;20562;-68
2023/07/22 07:18:55;;;;;;;14.27;5.20;;;15.60;99.90;;;;;;5005477;28;20383;-68
2023/07/22 07:21:21;;;;;;;11.10;4.28;;;15.60;99.90;;;;;;5023592;28;20049;-68
2023/07/22 07:23:48;;;;;;;7.60;4.18;;;15.60;99.90;;;;;;5018419;28;20038;-69
2023/07/22 07:26:14;;;;;;;10.93;3.92;;;15.60;99.90;;;;;;5003701;28;20042;-68
2023/07/22 07:28:40;;;;;;;9.25;3.83;;;15.60;99.90;;;;;;5005240;28;20100;-68
2023/07/22 07:31:05;;;;;;;10.90;4.50;;;15.60;99.90;;;;;;5005769;28;20124;-68
2023/07/22 07:33:31;;;;;;;10.15;5.32;;;15.70;99.90;;;;;;5014684;28;20042;-68
2023/07/22 07:35:57;;;;;;;14.93;4.65;;;15.70;99.90;;;;;;5004899;28;20092;-68
2023/07/22 07:38:22;;;;;;;11.68;4.30;;;15.80;99.90;;;;;;5003249;28;20045;-68
2023/07/22 07:40:53;;;;;;;11.07;5.22;;;15.80;99.90;;;;;;5005084;28;20136;-69
2023/07/22 07:43:19;;;;;;;12.52;4.78;;;15.90;99.90;;;;;;5004551;28;20584;-69
2023/07/22 07:45:45;;;;;;;11.05;4.28;;;16.00;99.90;;;;;;5012166;28;20061;-69
2023/07/22 07:48:10;;;;;;;9.55;3.40;;;16.10;99.90;;;;;;5010483;28;20049;-67
2023/07/22 07:50:36;;;;;;;9.05;3.67;;;16.20;99.90;;;;;;4986629;28;20083;-68
2023/07/22 07:53:01;;;;;;;12.05;4.13;;;16.30;99.90;;;;;;4999485;28;20434;-68
2023/07/22 07:55:27;;;;;;;5.50;4.05;;;16.30;99.90;;;;;;5023252;28;20042;-68
2023/07/22 07:57:53;;;;;;;10.20;4.03;;;16.40;99.90;;;;;;5001679;28;20050;-68
2023/07/22 08:00:20;;;;;;;7.80;3.33;;;16.40;99.90;;;;;;5003919;28;20531;-68
2023/07/22 08:02:45;;;;;;;9.00;3.35;;;16.40;99.90;;;;;;5003243;28;20046;-68
2023/07/22 08:05:12;;;;;;;6.90;3.10;;;16.50;99.90;;;;;;5009686;28;20096;-69
2023/07/22 08:07:38;;;;;;;7.90;3.78;;;16.50;99.90;;;;;;5004453;28;20042;-70
2023/07/22 08:10:07;;;;;;;7.22;3.42;;;16.50;99.90;;;;;;5005593;28;20034;-70
2023/07/22 08:12:33;;;;;;;4.72;2.78;;;16.40;99.90;;;;;;5004640;28;20053;-71
2023/07/22 08:14:59;;;;;;;16.33;3.00;;;16.40;99.90;;;;;;4995422;28;20125;-69
2023/07/22 08:17:24;;;;;;;7.22;3.13;;;16.40;99.90;;;;;;5004026;28;20471;-70
2023/07/22 08:19:50;;;;;;;4.82;3.00;;;16.40;99.90;;;;;;5004625;28;20121;-69
2023/07/22 08:22:16;;;;;;;4.88;2.53;;;16.40;99.90;;;;;;5003137;28;20369;-70
2023/07/22 08:24:41;;;;;;;8.65;2.72;;;16.40;99.90;;;;;;5010842;28;20124;-70
2023/07/22 08:27:07;;;;;;;8.70;3.22;;;16.40;99.90;;;;;;5008631;28;20066;-71
2023/07/22 08:29:33;;;;;;;8.52;2.33;;;16.30;99.90;;;;;;5003879;28;20030;-70
2023/07/22 08:31:58;;;;;;;7.45;3.10;;;16.30;99.90;;;;;;5002549;28;20030;-70
2023/07/22 08:34:24;;;;;;;5.00;2.85;;;16.20;99.90;;;;;;5002723;28;20042;-71
2023/07/22 08:36:50;;;;;;;4.93;2.45;;;16.10;99.90;;;;;;5002058;28;20048;-71
2023/07/22 08:39:15;;;;;;;5.75;2.67;;;16.10;99.90;;;;;;5003000;28;20088;-71
2023/07/22 08:41:50;;;;;;;4.15;2.28;;;16.10;99.90;;;;;;5004193;28;20042;-71
2023/07/22 08:44:19;;;;;;;5.45;2.80;;;16.00;99.90;;;;;;5003909;28;20471;-71
2023/07/22 08:46:46;;;;;;;13.02;3.10;;;16.00;99.90;;;;;;5007476;28;20495;-71
2023/07/22 08:49:11;;;;;;;8.02;2.63;;;16.00;99.90;;;;;;4987636;28;20038;-71
2023/07/22 08:51:39;;;;;;;7.40;2.72;;;16.00;99.90;;;;;;5003107;28;20065;-72
2023/07/22 08:54:05;;;;;;;6.93;2.60;;;16.00;99.90;;;;;;5004368;28;20042;-72
2023/07/22 08:56:32;;;;;;;7.72;3.50;;;16.00;99.90;;;;;;5017693;28;20033;-71
2023/07/22 08:58:58;;;;;;;7.68;3.08;;;16.00;99.90;;;;;;4993911;28;20050;-72
2023/07/22 09:01:24;;;;;;;5.93;3.38;;;16.00;99.90;;;;;;5006199;28;20117;-72
2023/07/22 09:03:52;;;;;;;6.45;3.25;;;16.10;99.90;;;;;;5005913;28;20599;-71
2023/07/22 09:06:19;;;;;;;9.63;2.97;;;16.10;99.90;;;;;;4991014;28;20062;-71
2023/07/22 09:08:45;;;;;;;6.10;3.05;;;16.10;99.90;;;;;;5006092;28;20087;-71
2023/07/22 09:11:11;;;;;;;7.05;2.65;;;16.10;99.90;;;;;;5004173;28;20084;-71
2023/07/22 09:13:39;;;;;;;4.88;2.90;;;16.10;99.90;;;;;;5004032;28;20049;-70
2023/07/22 09:16:06;;;;;;;6.88;3.20;;;16.10;99.90;;;;;;5002841;28;20053;-71
2023/07/22 09:18:35;;;;;;;4.57;2.20;;;16.10;99.90;;;;;;5003666;28;20034;-72
2023/07/22 09:21:01;;;;;;;4.90;2.25;;;16.00;99.90;;;;;;5001677;28;20099;-72
2023/07/22 09:23:33;;;;;;;7.00;3.30;;;16.00;99.90;;;;;;5004043;28;20042;-71
2023/07/22 09:26:10;;;;;;;3.72;2.15;;;15.90;99.90;;;;;;5002028;28;20153;-72
2023/07/22 09:28:52;;;;;;;2.75;1.90;;;15.90;99.90;;;;;;5000954;28;20038;-71
2023/07/22 09:31:18;;;;;;;2.75;2.45;;;15.90;99.90;;;;;;4987036;28;20499;-72
2023/07/22 09:33:44;;;;;;;3.65;2.10;;;16.00;99.90;;;;;;4981048;28;20366;-71
2023/07/22 09:36:12;;;;;;;4.47;2.30;;;16.00;99.90;;;;;;5000209;28;20056;-71
2023/07/22 09:38:38;;;;;;;6.22;3.03;;;16.00;99.90;;;;;;5001736;28;20504;-71
2023/07/22 09:41:04;;;;;;;5.57;2.80;;;16.00;99.90;;;;;;5000770;28;20120;-71
2023/07/22 09:43:31;;;;;;;5.50;2.67;;;16.00;99.90;;;;;;5001833;28;20073;-72
2023/07/22 09:46:08;;;;;;;7.90;3.35;;;16.10;99.90;;;;;;5003065;28;20124;-71
2023/07/22 09:48:41;;;;;;;11.77;3.17;;;16.10;99.90;;;;;;5005219;28;20389;-71
2023/07/22 09:51:12;;;;;;;7.47;3.17;;;16.10;99.90;;;;;;5001274;28;20570;-71
2023/07/22 09:53:38;;;;;;;4.55;3.13;;;16.20;99.90;;;;;;5002640;28;20050;-71
2023/07/22 09:56:06;;;;;;;6.53;2.95;;;16.20;99.90;;;;;;5000683;28;20167;-71
2023/07/22 09:58:33;;;;;;;7.30;3.42;;;16.20;99.90;;;;;;5000485;28;20508;-72
2023/07/22 10:01:00;;;;;;;9.75;3.72;;;16.30;99.90;;;;;;5001623;28;20073;-70
2023/07/22 10:03:30;;;;;;;8.07;3.20;;;16.30;99.90;;;;;;5003475;28;20050;-70
2023/07/22 10:05:59;;;;;;;7.72;3.20;;;16.30;99.90;;;;;;5002550;28;20045;-71
2023/07/22 10:08:29;;;;;;;4.53;2.97;;;16.30;99.90;;;;;;5001968;28;20050;-71
2023/07/22 10:10:57;;;;;;;6.25;3.47;;;16.40;99.90;;;;;;5002119;28;20153;-71
2023/07/22 10:13:24;;;;;;;5.50;2.72;;;16.40;99.90;;;;;;5003090;28;20113;-71
2023/07/22 10:15:50;;;;;;;4.75;3.47;;;16.40;99.90;;;;;;4985439;28;20049;-71
2023/07/22 10:18:17;;;;;;;5.35;3.58;;;16.40;99.90;;;;;;5002792;28;20127;-71
2023/07/22 10:20:44;;;;;;;8.10;2.92;;;16.40;99.90;;;;;;5001818;28;20105;-71
2023/07/22 10:23:13;;;;;;;5.15;3.17;;;16.40;99.90;;;;;;5000694;28;20050;-71
2023/07/22 10:25:40;;;;;;;4.95;2.55;;;16.40;99.90;;;;;;5017498;28;20042;-70
2023/07/22 10:28:07;;;;;;;4.18;2.63;;;16.30;99.90;;;;;;5007996;28;20503;-70
2023/07/22 10:30:33;;;;;;;5.72;3.08;;;16.30;99.90;;;;;;5009774;28;20049;-70
2023/07/22 10:32:59;;;;;;;7.32;3.00;;;16.30;99.90;;;;;;5005730;28;20124;-70
2023/07/22 10:35:30;;;;;;;6.13;2.70;;;16.30;99.90;;;;;;5003370;28;20132;-70
2023/07/22 10:38:13;;;;;;;6.20;2.65;;;16.30;99.90;;;;;;5007280;28;20048;-70
2023/07/22 10:40:46;;;;;;;5.90;3.45;;;16.30;99.90;;;;;;4998825;28;20480;-71
2023/07/22 10:43:12;;;;;;;4.75;3.28;;;16.20;99.90;;;;;;5001899;28;20046;-72
2023/07/22 10:45:50;;;;;;;7.43;3.28;;;16.20;99.90;;;;;;5003132;28;20038;-72
2023/07/22 10:48:16;;;;;;;6.03;3.50;;;16.20;99.90;;;;;;5002772;28;20065;-70
2023/07/22 10:50:42;;;;;;;9.07;3.25;;;16.30;99.90;;;;;;5003155;28;20508;-72
2023/07/22 10:53:20;;;;;;;5.13;3.10;;;16.30;99.90;;;;;;5001609;28;20088;-73
2023/07/22 10:56:05;;;;;;;5.82;2.72;;;16.30;99.90;;;;;;5006368;28;20038;-72
2023/07/22 10:58:53;;;;;;;4.20;2.85;;;16.30;99.90;;;;;;5002268;28;20070;-72
2023/07/22 11:01:26;;;;;;;5.40;3.30;;;16.30;99.90;;;;;;5001576;28;20081;-73
2023/07/22 11:04:16;;;;;;;6.00;2.80;;;16.30;99.90;;;;;;4996499;28;20041;-74
2023/07/22 11:06:48;;;;;;;5.65;3.45;;;16.30;99.90;;;;;;4993907;28;20054;-72
2023/07/22 11:09:29;;;;;;;6.68;3.58;;;16.30;99.90;;;;;;5001653;28;20081;-72
2023/07/22 11:11:58;;;;;;;6.35;3.25;;;16.30;99.90;;;;;;5007719;28;20053;-72
2023/07/22 11:14:26;;;;;;;5.15;3.80;;;16.20;99.90;;;;;;5010351;28;20038;-72
2023/07/22 11:16:52;;;;;;;6.00;3.42;;;16.20;99.90;;;;;;5006212;28;20103;-71
2023/07/22 11:19:22;;;;;;;10.77;4.05;;;16.20;99.90;;;;;;5001980;28;20500;-72
2023/07/22 11:21:49;;;;;;;6.25;3.03;;;16.20;99.90;;;;;;5000390;28;20050;-72
2023/07/22 11:24:16;;;;;;;7.20;3.20;;;16.20;99.90;;;;;;5001828;28;20030;-73
2023/07/22 11:26:42;;;;;;;9.15;3.20;;;16.20;99.90;;;;;;5015452;28;20053;-71
2023/07/22 11:29:09;;;;;;;4.93;3.45;;;16.20;99.90;;;;;;5003356;28;20042;-72
2023/07/22 11:31:42;;;;;;;4.00;2.83;;;16.20;99.90;;;;;;5001586;28;20060;-72
2023/07/22 11:34:09;;;;;;;4.15;2.80;;;16.20;99.90;;;;;;5001840;28;20050;-72
2023/07/22 11:36:37;;;;;;;3.35;2.83;;;16.20;99.90;;;;;;5001951;28;20057;-71
2023/07/22 11:39:08;;;;;;;6.00;2.60;;;16.10;99.90;;;;;;5005394;28;20046;-72
2023/07/22 11:41:35;;;;;;;3.42;2.45;;;16.10;99.90;;;;;;5007847;28;20050;-73
2023/07/22 11:44:02;;;;;;;5.00;2.42;;;16.10;99.90;;;;;;5014598;28;20551;-74
2023/07/22 11:46:28;;;;;;;3.38;2.38;;;16.10;99.90;;;;;;5005676;28;20050;-71
2023/07/22 11:48:55;;;;;;;4.22;2.15;;;16.10;99.90;;;;;;5004983;28;20054;-72
2023/07/22 11:51:25;;;;;;;5.60;2.92;;;16.10;99.90;;;;;;5005453;28;20042;-72
2023/07/22 11:53:54;;;;;;;6.43;2.40;;;16.20;99.90;;;;;;5005206;28;20096;-72
2023/07/22 11:56:27;;;;;;;5.18;1.98;;;16.20;99.90;;;;;;5006050;28;20048;-72
2023/07/22 11:58:56;;;;;;;4.30;2.20;;;16.20;99.90;;;;;;4993424;28;20412;-72
2023/07/22 12:01:22;;;;;;;3.38;2.03;;;16.30;99.90;;;;;;5004662;28;20559;-72
2023/07/22 12:03:49;;;;;;;3.25;2.13;;;16.30;99.90;;;;;;5005523;28;20074;-72
2023/07/22 12:06:15;;;;;;;2.92;2.00;;;16.40;99.90;;;;;;5003893;28;20412;-72
2023/07/22 12:08:46;;;;;;;6.13;2.42;;;16.50;99.90;;;;;;5006299;28;20053;-72
2023/07/22 12:11:19;;;;;;;4.53;2.30;;;16.50;99.90;;;;;;5004183;28;20048;-72
2023/07/22 12:13:49;;;;;;;3.63;2.50;;;16.60;99.90;;;;;;5008240;28;20230;-73
2023/07/22 12:16:26;;;;;;;4.40;3.17;;;16.70;99.90;;;;;;5004462;28;20041;-71
2023/07/22 12:18:56;;;;;;;5.43;2.70;;;16.80;99.90;;;;;;5007987;28;20057;-72
2023/07/22 12:21:21;;;;;;;7.30;2.78;;;16.90;99.90;;;;;;5007974;28;20056;-72
2023/07/22 12:23:47;;;;;;;5.57;2.95;;;17.00;99.90;;;;;;5005805;28;20363;-72
2023/07/22 12:26:13;;;;;;;6.43;3.35;;;17.20;99.90;;;;;;5003930;28;20326;-73
2023/07/22 12:28:39;;;;;;;7.35;3.95;;;17.30;99.90;;;;;;5004708;28;20085;-71
2023/07/22 12:31:04;;;;;;;7.03;4.00;;;17.30;99.90;;;;;;5008180;28;20045;-71
2023/07/22 12:33:31;;;;;;;7.32;4.00;;;17.40;99.90;;;;;;5006624;28;20050;-72
2023/07/22 12:35:57;;;;;;;6.35;4.03;;;17.40;99.90;;;;;;5006235;28;20034;-72
2023/07/22 12:38:23;;;;;;;7.68;4.35;;;17.40;99.90;;;;;;5004930;28;20085;-71
2023/07/22 12:40:49;;;;;;;5.28;3.67;;;17.40;99.90;;;;;;4988376;28;20056;-71
2023/07/22 12:43:15;;;;;;;6.35;3.28;;;17.40;99.90;;;;;;5003603;28;20056;-71
2023/07/22 12:45:40;;;;;;;7.05;3.55;;;17.40;99.90;;;;;;5004490;28;20042;-72